createdAt,value
2023-02-02T00:00:14.012Z,87.50
2023-02-02T00:02:59.621Z,87.40
2023-02-02T00:05:49.375Z,87.30
2023-02-02T00:08:36.428Z,87.40
2023-02-02T00:11:24.548Z,87.10
2023-02-02T00:14:10.939Z,87.00
2023-02-02T00:17:00.027Z,87.50
2023-02-02T00:19:46.735Z,86.90
2023-02-02T00:22:31.880Z,86.70
2023-02-02T00:25:17.357Z,87.40
2023-02-02T00:28:02.873Z,86.50
2023-02-02T00:30:48.494Z,86.50
2023-02-02T00:33:36.524Z,87.10
2023-02-02T00:36:25.212Z,86.30
2023-02-02T00:39:15.488Z,86.30
2023-02-02T00:42:01.263Z,86.40
2023-02-02T00:45:05.159Z,86.40
2023-02-02T00:47:50.796Z,86.30
2023-02-02T00:50:36.765Z,86.30
2023-02-02T00:53:22.287Z,86.40
2023-02-02T00:56:08.023Z,86.40
2023-02-02T00:58:56.477Z,86.50
2023-02-02T01:01:45.325Z,86.10
2023-02-02T01:04:33.543Z,86.00
2023-02-02T01:07:19.146Z,86.00
2023-02-02T01:10:06.488Z,85.80
2023-02-02T01:12:53.740Z,86.00
2023-02-02T01:15:39.491Z,85.90
2023-02-02T01:18:25.255Z,85.80
2023-02-02T01:21:12.027Z,85.90
2023-02-02T01:24:00.632Z,85.90
2023-02-02T01:26:46.291Z,86.00
2023-02-02T01:29:31.694Z,86.10
2023-02-02T01:32:17.018Z,86.20
2023-02-02T01:35:02.547Z,86.00
2023-02-02T01:37:50.980Z,86.00
2023-02-02T01:40:36.407Z,86.10
2023-02-02T01:43:46.940Z,86.00
2023-02-02T01:46:37.221Z,86.10
2023-02-02T01:49:26.488Z,86.10
2023-02-02T01:52:13.915Z,86.10
2023-02-02T01:55:11.726Z,86.10
2023-02-02T01:58:06.861Z,86.20
2023-02-02T02:00:55.026Z,86.20
2023-02-02T02:04:01.667Z,86.50
2023-02-02T02:06:48.449Z,86.50
2023-02-02T02:09:34.791Z,86.60
2023-02-02T02:12:20.595Z,86.50
2023-02-02T02:15:25.652Z,86.40
2023-02-02T02:19:05.393Z,86.30
2023-02-02T02:22:35.307Z,86.20
2023-02-02T02:25:58.309Z,86.20
2023-02-02T02:29:22.823Z,86.20
2023-02-02T02:32:37.363Z,86.20
2023-02-02T02:35:48.042Z,86.10
2023-02-02T02:38:44.961Z,86.10
2023-02-02T02:41:36.119Z,86.00
2023-02-02T02:44:26.616Z,86.00
2023-02-02T02:47:13.644Z,85.80
2023-02-02T02:49:59.203Z,85.80
2023-02-02T02:52:46.792Z,85.80
2023-02-02T02:55:48.903Z,85.60
2023-02-02T02:58:58.125Z,85.60
2023-02-02T03:02:17.295Z,85.70
2023-02-02T03:05:22.140Z,85.70
2023-02-02T03:08:20.749Z,85.80
2023-02-02T03:11:09.507Z,86.50
2023-02-02T03:13:56.193Z,86.00
2023-02-02T03:16:42.184Z,86.00
2023-02-02T03:19:31.151Z,86.00
2023-02-02T03:22:16.599Z,86.90
2023-02-02T03:25:03.819Z,86.10
2023-02-02T03:27:50.078Z,86.00
2023-02-02T03:30:36.667Z,86.10
2023-02-02T03:33:24.603Z,85.90
2023-02-02T03:36:10.115Z,86.20
2023-02-02T03:38:55.654Z,85.70
2023-02-02T03:41:41.078Z,85.70
2023-02-02T03:44:26.862Z,85.90
2023-02-02T03:47:12.468Z,85.60
2023-02-02T03:49:58.029Z,85.50
2023-02-02T03:52:43.364Z,85.50
2023-02-02T03:55:29.219Z,85.50
2023-02-02T03:58:16.093Z,85.60
2023-02-02T04:01:12.015Z,85.70
2023-02-02T04:03:58.409Z,85.70
2023-02-02T04:06:44.243Z,85.70
2023-02-02T04:09:29.749Z,85.80
2023-02-02T04:12:15.372Z,85.90
2023-02-02T04:15:00.811Z,85.90
2023-02-02T04:17:46.608Z,86.00
2023-02-02T04:20:31.965Z,86.90
2023-02-02T04:23:18.337Z,86.20
2023-02-02T04:26:04.051Z,86.10
2023-02-02T04:28:49.648Z,86.20
2023-02-02T04:31:37.940Z,86.20
2023-02-02T04:34:25.941Z,86.20
2023-02-02T04:37:12.062Z,86.20
2023-02-02T04:39:57.871Z,86.20
2023-02-02T04:42:43.340Z,86.10
2023-02-02T04:45:28.828Z,86.10
2023-02-02T04:48:14.368Z,86.00
2023-02-02T04:51:05.473Z,86.00
2023-02-02T04:53:51.122Z,86.10
2023-02-02T04:56:37.948Z,85.90
2023-02-02T04:59:24.266Z,85.90
2023-02-02T05:02:11.283Z,86.00
2023-02-02T05:04:56.819Z,86.10
2023-02-02T05:07:51.175Z,85.80
2023-02-02T05:10:39.338Z,85.90
2023-02-02T05:13:25.237Z,85.90
2023-02-02T05:16:11.903Z,86.00
2023-02-02T05:22:08.660Z,86.20
2023-02-02T05:24:56.717Z,86.10
2023-02-02T05:27:46.607Z,86.20
2023-02-02T05:30:33.573Z,86.10
2023-02-02T05:33:19.816Z,86.10
2023-02-02T05:36:05.959Z,86.30
2023-02-02T05:38:53.215Z,86.40
2023-02-02T05:41:38.769Z,86.50
2023-02-02T05:44:24.311Z,86.40
2023-02-02T05:47:10.220Z,86.50
2023-02-02T05:49:59.772Z,86.50
2023-02-02T05:52:46.903Z,86.60
2023-02-02T05:55:33.053Z,86.90
2023-02-02T05:58:21.607Z,87.10
2023-02-02T06:01:07.141Z,87.00
2023-02-02T06:03:55.033Z,87.20
2023-02-02T06:06:40.522Z,87.30
2023-02-02T06:09:26.152Z,87.50
2023-02-02T06:12:11.387Z,87.60
2023-02-02T06:14:59.704Z,87.60
2023-02-02T06:17:45.549Z,87.90
2023-02-02T06:20:30.850Z,88.00
2023-02-02T06:23:16.692Z,88.00
2023-02-02T06:26:03.652Z,88.10
2023-02-02T06:28:51.937Z,87.90
2023-02-02T06:31:37.224Z,88.00
2023-02-02T06:34:22.740Z,87.80
2023-02-02T06:37:08.169Z,87.70
2023-02-02T06:39:54.894Z,87.80
2023-02-02T06:42:41.177Z,87.90
2023-02-02T06:45:30.359Z,88.30
2023-02-02T06:48:16.091Z,88.70
2023-02-02T06:51:05.644Z,88.80
2023-02-02T06:53:50.801Z,89.10
2023-02-02T06:56:36.366Z,89.70
2023-02-02T06:59:21.892Z,90.00
2023-02-02T07:02:16.598Z,90.20
2023-02-02T07:05:02.179Z,90.30
2023-02-02T07:07:47.656Z,90.40
2023-02-02T07:11:09.464Z,90.50
2023-02-02T07:13:43.697Z,90.40
2023-02-02T07:16:30.482Z,90.40
2023-02-02T07:19:16.131Z,90.40
2023-02-02T07:22:01.333Z,90.40
2023-02-02T07:24:46.785Z,90.40
2023-02-02T07:27:35.985Z,90.30
2023-02-02T07:30:25.456Z,90.20
2023-02-02T07:33:11.132Z,90.30
2023-02-02T07:35:56.761Z,90.10
2023-02-02T07:38:43.334Z,90.20
2023-02-02T07:41:28.627Z,90.10
2023-02-02T07:44:17.356Z,90.20
2023-02-02T07:47:03.198Z,90.10
2023-02-02T07:49:51.407Z,90.00
2023-02-02T07:52:36.876Z,90.00
2023-02-02T07:55:22.781Z,90.00
2023-02-02T07:58:11.544Z,89.90
2023-02-02T08:01:03.501Z,90.00
2023-02-02T08:03:50.533Z,89.90
2023-02-02T08:06:38.285Z,89.70
2023-02-02T08:09:26.430Z,90.00
2023-02-02T08:12:13.053Z,89.80
2023-02-02T08:15:01.203Z,89.60
2023-02-02T08:17:49.826Z,89.70
2023-02-02T08:20:35.945Z,89.50
2023-02-02T08:23:23.632Z,89.40
2023-02-02T08:26:13.359Z,89.40
2023-02-02T08:29:07.574Z,89.10
2023-02-02T08:31:56.258Z,89.00
2023-02-02T08:34:42.248Z,89.10
2023-02-02T08:37:30.845Z,88.80
2023-02-02T08:40:16.218Z,88.50
2023-02-02T08:43:01.828Z,88.10
2023-02-02T08:46:01.460Z,88.00
2023-02-02T08:48:52.931Z,87.50
2023-02-02T08:54:47.469Z,87.50
2023-02-02T08:57:34.463Z,87.10
2023-02-02T09:00:23.100Z,87.30
2023-02-02T09:03:08.427Z,86.80
2023-02-02T09:05:56.417Z,86.80
2023-02-02T09:08:41.840Z,86.70
2023-02-02T09:11:27.755Z,86.70
2023-02-02T09:14:14.190Z,86.60
2023-02-02T09:17:07.098Z,86.60
2023-02-02T09:19:54.776Z,86.70
2023-02-02T09:22:40.235Z,86.60
2023-02-02T09:25:27.656Z,86.70
2023-02-02T09:28:13.339Z,86.90
2023-02-02T09:31:04.638Z,86.90
2023-02-02T09:33:50.634Z,87.20
2023-02-02T09:36:42.001Z,87.60
2023-02-02T09:39:27.504Z,87.80
2023-02-02T09:42:50.715Z,88.00
2023-02-02T09:45:54.975Z,87.70
2023-02-02T09:48:48.974Z,87.80
2023-02-02T09:51:41.471Z,87.40
2023-02-02T09:54:42.425Z,87.20
2023-02-02T09:57:41.327Z,88.00
2023-02-02T10:00:36.144Z,87.00
2023-02-02T10:03:24.531Z,85.80
2023-02-02T10:09:56.362Z,85.10
2023-02-02T10:13:32.957Z,84.70
2023-02-02T10:16:21.978Z,84.30
2023-02-02T10:19:15.473Z,83.50
2023-02-02T10:22:10.875Z,82.40
2023-02-02T10:24:57.477Z,82.80
2023-02-02T10:27:53.718Z,83.00
2023-02-02T10:30:53.497Z,82.60
2023-02-02T10:33:42.939Z,82.20
2023-02-02T10:36:37.509Z,82.90
2023-02-02T10:39:52.286Z,82.10
2023-02-02T10:42:45.634Z,81.90
2023-02-02T10:45:31.282Z,81.40
2023-02-02T10:48:24.941Z,81.10
2023-02-02T10:51:23.107Z,81.40
2023-02-02T10:54:50.034Z,80.70
2023-02-02T10:57:53.814Z,80.50
2023-02-02T11:00:46.536Z,80.60
2023-02-02T11:03:33.644Z,80.70
2023-02-02T11:06:41.891Z,81.40
2023-02-02T11:09:35.696Z,81.30
2023-02-02T11:12:24.566Z,81.50
2023-02-02T11:15:46.394Z,81.10
2023-02-02T11:18:32.847Z,81.00
2023-02-02T11:21:22.069Z,80.50
2023-02-02T11:24:26.943Z,80.20
2023-02-02T11:27:32.440Z,80.40
2023-02-02T11:30:24.588Z,80.80
2023-02-02T11:33:30.858Z,81.00
2023-02-02T11:36:21.575Z,80.90
2023-02-02T11:39:39.803Z,81.40
2023-02-02T11:42:27.215Z,81.40
2023-02-02T11:45:18.696Z,81.70
2023-02-02T11:48:22.340Z,81.80
2023-02-02T11:51:11.006Z,81.90
2023-02-02T11:54:05.351Z,82.20
2023-02-02T11:56:53.872Z,83.20
2023-02-02T11:59:44.323Z,82.60
2023-02-02T12:02:32.089Z,82.70
2023-02-02T12:05:20.679Z,82.80
2023-02-02T12:08:10.026Z,83.00
2023-02-02T12:11:04.010Z,83.60
2023-02-02T12:13:57.613Z,83.20
2023-02-02T12:17:03.787Z,83.30
2023-02-02T12:20:13.630Z,83.70
2023-02-02T12:23:35.015Z,83.80
2023-02-02T12:26:29.244Z,84.50
2023-02-02T12:29:34.775Z,84.70
2023-02-02T12:32:57.830Z,85.30
2023-02-02T12:36:10.395Z,86.30
2023-02-02T12:39:20.607Z,87.50
2023-02-02T12:42:14.814Z,88.40
2023-02-02T12:45:42.780Z,90.00
2023-02-02T12:48:46.966Z,90.30
2023-02-02T12:51:56.101Z,90.50
2023-02-02T12:54:57.338Z,90.80
2023-02-02T12:57:54.892Z,91.20
2023-02-02T13:01:07.565Z,91.40
2023-02-02T13:04:01.831Z,92.20
2023-02-02T13:07:20.281Z,92.50
2023-02-02T13:10:15.290Z,92.50
2023-02-02T13:13:17.654Z,92.90
2023-02-02T13:16:14.974Z,92.70
2023-02-02T13:19:07.518Z,93.00
2023-02-02T13:22:00.443Z,93.30
2023-02-02T13:24:50.999Z,93.50
2023-02-02T13:27:39.361Z,93.60
2023-02-02T13:30:38.289Z,93.90
2023-02-02T13:33:29.795Z,93.90
2023-02-02T13:36:28.680Z,93.90
2023-02-02T13:39:20.064Z,94.00
2023-02-02T13:42:16.996Z,94.20
2023-02-02T13:45:38.509Z,94.30
2023-02-02T13:48:31.853Z,94.20
2023-02-02T13:51:35.751Z,94.40
2023-02-02T13:54:50.604Z,94.80
2023-02-02T13:58:04.976Z,94.80
2023-02-02T14:03:56.485Z,95.00
2023-02-02T14:06:56.227Z,95.20
2023-02-02T14:09:42.381Z,95.50
2023-02-02T14:12:34.034Z,95.50
2023-02-02T14:15:19.385Z,95.40
2023-02-02T14:18:05.021Z,95.50
2023-02-02T14:20:50.309Z,95.80
2023-02-02T14:23:55.851Z,96.00
2023-02-02T14:26:49.579Z,96.10
2023-02-02T14:29:59.309Z,96.30
2023-02-02T14:32:46.265Z,96.30
2023-02-02T14:35:31.446Z,96.10
2023-02-02T14:38:49.032Z,96.60
2023-02-02T14:42:01.255Z,96.20
2023-02-02T14:45:11.793Z,96.30
2023-02-02T14:48:09.248Z,96.50
2023-02-02T14:51:01.436Z,96.60
2023-02-02T14:54:04.822Z,96.70
2023-02-02T14:56:58.183Z,96.80
2023-02-02T14:59:46.902Z,96.90
2023-02-02T15:02:37.888Z,96.90
2023-02-02T15:05:30.639Z,97.00
2023-02-02T15:08:27.209Z,97.00
2023-02-02T15:11:32.051Z,97.10
2023-02-02T15:14:20.469Z,97.20
2023-02-02T15:17:41.694Z,97.00
2023-02-02T15:20:33.856Z,97.00
2023-02-02T15:23:23.758Z,97.00
2023-02-02T15:26:37.769Z,97.10
2023-02-02T15:29:58.217Z,97.00
2023-02-02T15:32:44.893Z,97.10
2023-02-02T15:35:31.850Z,97.10
2023-02-02T15:38:20.397Z,96.90
2023-02-02T15:41:26.437Z,97.00
2023-02-02T15:44:27.031Z,96.90
2023-02-02T15:47:33.551Z,96.80
2023-02-02T15:50:20.764Z,96.70
2023-02-02T15:53:06.492Z,96.60
2023-02-02T15:55:54.984Z,96.60
2023-02-02T15:58:41.712Z,96.40
2023-02-02T16:01:31.817Z,96.40
2023-02-02T16:04:25.566Z,96.40
2023-02-02T16:07:31.228Z,96.40
2023-02-02T16:10:20.950Z,96.40
2023-02-02T16:13:06.421Z,96.40
2023-02-02T16:16:07.186Z,96.50
2023-02-02T16:19:26.237Z,96.40
2023-02-02T16:22:16.871Z,96.40
2023-02-02T16:25:08.073Z,96.30
2023-02-02T16:27:56.973Z,96.30
2023-02-02T16:30:43.265Z,96.40
2023-02-02T16:33:42.774Z,96.30
2023-02-02T16:36:32.131Z,96.30
2023-02-02T16:39:23.418Z,96.30
2023-02-02T16:42:29.916Z,96.40
2023-02-02T16:45:48.138Z,96.30
2023-02-02T16:48:45.572Z,96.30
2023-02-02T16:51:34.036Z,96.30
2023-02-02T16:54:21.044Z,96.40
2023-02-02T16:57:09.322Z,96.30
2023-02-02T17:00:00.709Z,96.40
2023-02-02T17:02:50.463Z,96.20
2023-02-02T17:05:53.692Z,96.20
2023-02-02T17:08:40.635Z,96.20
2023-02-02T17:11:27.836Z,96.20
2023-02-02T17:14:20.485Z,96.20
2023-02-02T17:17:06.560Z,96.20
2023-02-02T17:19:54.837Z,96.20
2023-02-02T17:22:52.807Z,96.10
2023-02-02T17:25:42.443Z,96.10
2023-02-02T17:28:39.929Z,96.00
2023-02-02T17:31:25.229Z,96.10
2023-02-02T17:34:14.840Z,96.10
2023-02-02T17:37:00.373Z,96.00
2023-02-02T17:39:46.127Z,96.00
2023-02-02T17:42:32.351Z,96.00
2023-02-02T17:45:24.164Z,95.90
2023-02-02T17:48:12.539Z,95.80
2023-02-02T17:50:58.047Z,95.80
2023-02-02T17:53:44.687Z,95.80
2023-02-02T17:56:29.868Z,95.80
2023-02-02T17:59:15.659Z,95.60
2023-02-02T18:02:01.670Z,95.60
2023-02-02T18:04:47.110Z,95.50
2023-02-02T18:07:32.510Z,95.50
2023-02-02T18:10:24.579Z,95.40
2023-02-02T18:13:14.681Z,95.40
2023-02-02T18:16:00.239Z,95.30
2023-02-02T18:18:45.834Z,95.20
2023-02-02T18:21:32.544Z,95.10
2023-02-02T18:24:18.898Z,95.00
2023-02-02T18:27:04.282Z,95.00
2023-02-02T18:29:49.887Z,94.90
2023-02-02T18:32:39.535Z,94.80
2023-02-02T18:35:25.742Z,94.70
2023-02-02T18:38:12.922Z,94.70
2023-02-02T18:41:25.916Z,95.00
2023-02-02T18:44:09.497Z,94.80
2023-02-02T18:46:55.020Z,94.90
2023-02-02T18:49:40.549Z,94.80
2023-02-02T18:52:25.805Z,94.90
2023-02-02T18:55:11.489Z,94.90
2023-02-02T18:57:57.112Z,94.90
2023-02-02T19:00:43.234Z,94.90
2023-02-02T19:03:32.038Z,95.00
2023-02-02T19:06:36.505Z,95.00
2023-02-02T19:09:22.368Z,95.00
2023-02-02T19:12:17.015Z,94.90
2023-02-02T19:15:10.513Z,94.90
2023-02-02T19:17:55.757Z,94.90
2023-02-02T19:20:45.015Z,94.80
2023-02-02T19:23:32.402Z,94.80
2023-02-02T19:26:24.745Z,94.70
2023-02-02T19:29:22.808Z,94.70
2023-02-02T19:32:21.785Z,94.60
2023-02-02T19:35:15.514Z,94.50
2023-02-02T19:38:02.910Z,94.40
2023-02-02T19:40:55.439Z,94.30
2023-02-02T19:43:47.423Z,94.20
2023-02-02T19:46:39.780Z,94.20
2023-02-02T19:49:32.841Z,94.10
2023-02-02T19:52:25.498Z,94.00
2023-02-02T19:55:29.175Z,93.90
2023-02-02T19:58:24.376Z,94.20
2023-02-02T20:01:19.804Z,93.80
2023-02-02T20:04:13.968Z,93.80
2023-02-02T20:06:59.999Z,93.80
2023-02-02T20:09:45.362Z,93.70
2023-02-02T20:12:31.765Z,93.60
2023-02-02T20:15:37.214Z,93.60
2023-02-02T20:18:44.424Z,93.50
2023-02-02T20:21:41.771Z,93.50
2023-02-02T20:24:40.535Z,93.50
2023-02-02T20:27:32.246Z,93.60
2023-02-02T20:30:27.856Z,93.50
2023-02-02T20:33:23.575Z,93.60
2023-02-02T20:36:28.701Z,93.50
2023-02-02T20:39:28.349Z,93.50
2023-02-02T20:42:15.066Z,93.50
2023-02-02T20:45:00.404Z,93.60
2023-02-02T20:47:45.861Z,93.60
2023-02-02T20:50:31.198Z,93.50
2023-02-02T20:53:18.784Z,93.60
2023-02-02T20:56:09.589Z,93.60
2023-02-02T20:58:55.104Z,93.50
2023-02-02T21:01:40.902Z,93.50
2023-02-02T21:04:28.951Z,93.50
2023-02-02T21:07:17.056Z,93.50
2023-02-02T21:10:02.121Z,93.50
2023-02-02T21:12:51.482Z,93.50
2023-02-02T21:15:40.527Z,93.50
2023-02-02T21:18:25.756Z,93.50
2023-02-02T21:21:11.336Z,93.50
2023-02-02T21:24:06.136Z,93.50
2023-02-02T21:26:54.241Z,93.50
2023-02-02T21:29:47.382Z,93.40
2023-02-02T21:32:33.634Z,93.50
2023-02-02T21:35:19.145Z,93.40
2023-02-02T21:38:12.874Z,93.30
2023-02-02T21:40:59.536Z,93.20
2023-02-02T21:43:45.356Z,93.20
2023-02-02T21:46:37.217Z,93.20
2023-02-02T21:49:27.834Z,93.20
2023-02-02T21:52:18.144Z,93.20
2023-02-02T21:55:34.769Z,93.20
2023-02-02T21:58:33.537Z,93.30
2023-02-02T22:01:45.206Z,93.20
2023-02-02T22:04:36.195Z,93.30
2023-02-02T22:07:21.865Z,93.30
2023-02-02T22:10:21.488Z,93.30
2023-02-02T22:13:26.709Z,93.30
2023-02-02T22:16:19.085Z,93.40
2023-02-02T22:19:38.058Z,93.40
2023-02-02T22:22:32.615Z,93.40
2023-02-02T22:25:18.068Z,93.40
2023-02-02T22:28:35.532Z,93.40
2023-02-02T22:31:21.328Z,93.40
2023-02-02T22:34:06.905Z,93.50
2023-02-02T22:36:52.514Z,93.40
2023-02-02T22:39:42.788Z,93.40
2023-02-02T22:42:28.083Z,93.40
2023-02-02T22:45:13.787Z,93.40
2023-02-02T22:47:59.633Z,93.40
2023-02-02T22:50:45.331Z,93.40
2023-02-02T22:53:32.374Z,93.40
2023-02-02T22:56:17.568Z,93.40
2023-02-02T22:59:03.577Z,93.40
2023-02-02T23:01:51.949Z,93.30
2023-02-02T23:04:37.363Z,93.30
2023-02-02T23:07:24.492Z,93.20
2023-02-02T23:10:12.061Z,93.20
2023-02-02T23:12:59.237Z,93.10
2023-02-02T23:15:44.490Z,93.10
2023-02-02T23:18:29.997Z,93.10
2023-02-02T23:21:16.077Z,93.00
2023-02-02T23:24:02.983Z,93.10
2023-02-02T23:26:52.428Z,93.00
2023-02-02T23:29:37.895Z,92.90
2023-02-02T23:32:26.475Z,92.80
2023-02-02T23:35:12.304Z,92.80
2023-02-02T23:37:57.618Z,92.80
2023-02-02T23:40:46.354Z,92.70
2023-02-02T23:43:31.870Z,92.70
2023-02-02T23:46:18.069Z,92.60
2023-02-02T23:49:05.587Z,92.60
2023-02-02T23:51:57.092Z,92.60
2023-02-02T23:54:43.207Z,92.60
2023-02-02T23:57:28.365Z,92.50
